createdAt,value
2022-08-17T00:00:43.930Z,8.07
2022-08-17T00:03:07.142Z,7.90
2022-08-17T00:05:38.008Z,7.72
2022-08-17T00:08:06.990Z,7.90
2022-08-17T00:10:37.438Z,8.23
2022-08-17T00:13:09.763Z,7.43
2022-08-17T00:15:38.553Z,7.95
2022-08-17T00:18:58.171Z,7.82
2022-08-17T00:20:56.797Z,7.82
2022-08-17T00:23:25.859Z,8.52
2022-08-17T00:25:56.232Z,8.30
2022-08-17T00:28:25.309Z,7.90
2022-08-17T00:30:54.904Z,8.48
2022-08-17T00:33:26.487Z,7.97
2022-08-17T00:35:55.492Z,8.30
2022-08-17T00:38:24.698Z,8.00
2022-08-17T00:40:55.873Z,8.40
2022-08-17T00:43:32.006Z,8.60
2022-08-17T00:46:00.949Z,8.52
2022-08-17T00:48:30.887Z,8.30
2022-08-17T00:51:05.083Z,7.90
2022-08-17T00:53:35.175Z,7.93
2022-08-17T00:56:04.771Z,9.20
2022-08-17T00:58:36.360Z,8.48
2022-08-17T01:01:05.503Z,8.32
2022-08-17T01:03:34.732Z,8.43
2022-08-17T01:06:04.491Z,8.73
2022-08-17T01:08:33.136Z,8.60
2022-08-17T01:11:02.795Z,8.68
2022-08-17T01:13:38.196Z,8.50
2022-08-17T01:16:13.561Z,8.55
2022-08-17T01:18:42.220Z,9.15
2022-08-17T01:21:12.751Z,8.35
2022-08-17T01:23:43.248Z,8.48
2022-08-17T01:26:11.649Z,7.82
2022-08-17T01:28:55.408Z,8.73
2022-08-17T01:31:25.170Z,7.93
2022-08-17T01:33:53.629Z,7.97
2022-08-17T01:36:22.149Z,8.40
2022-08-17T01:38:52.068Z,8.25
2022-08-17T01:41:20.756Z,8.77
2022-08-17T01:43:50.907Z,8.43
2022-08-17T01:46:23.200Z,9.32
2022-08-17T01:51:32.931Z,8.43
2022-08-17T01:54:03.119Z,8.73
2022-08-17T01:56:32.179Z,7.90
2022-08-17T01:59:00.602Z,8.27
2022-08-17T02:01:31.552Z,8.00
2022-08-17T02:04:01.877Z,8.48
2022-08-17T02:06:45.002Z,8.20
2022-08-17T02:09:23.437Z,8.50
2022-08-17T02:11:54.172Z,8.38
2022-08-17T02:14:22.772Z,8.13
2022-08-17T02:16:51.279Z,8.93
2022-08-17T02:19:19.725Z,9.07
2022-08-17T02:21:50.479Z,8.88
2022-08-17T02:24:59.360Z,8.88
2022-08-17T02:27:09.086Z,8.63
2022-08-17T02:29:37.784Z,8.52
2022-08-17T02:32:06.541Z,9.13
2022-08-17T02:34:34.929Z,8.80
2022-08-17T02:37:04.687Z,8.55
2022-08-17T02:39:33.106Z,8.05
2022-08-17T02:42:04.880Z,8.52
2022-08-17T02:44:39.233Z,7.75
2022-08-17T02:47:08.947Z,8.50
2022-08-17T02:49:37.549Z,8.48
2022-08-17T02:52:08.517Z,7.75
2022-08-17T02:54:41.618Z,7.55
2022-08-17T02:57:10.937Z,7.75
2022-08-17T02:59:39.531Z,7.20
2022-08-17T03:02:08.422Z,7.25
2022-08-17T03:04:37.013Z,7.57
2022-08-17T03:07:06.960Z,7.40
2022-08-17T03:09:35.490Z,7.45
2022-08-17T03:12:08.252Z,7.45
2022-08-17T03:14:41.445Z,7.80
2022-08-17T03:17:11.209Z,7.20
2022-08-17T03:19:45.743Z,7.30
2022-08-17T03:22:35.583Z,7.63
2022-08-17T03:25:03.940Z,7.32
2022-08-17T03:27:41.962Z,7.60
2022-08-17T03:30:13.146Z,7.47
2022-08-17T03:32:42.921Z,6.93
2022-08-17T03:35:12.132Z,6.80
2022-08-17T03:37:42.709Z,7.43
2022-08-17T03:40:12.125Z,6.97
2022-08-17T03:42:41.369Z,7.88
2022-08-17T03:45:15.377Z,7.93
2022-08-17T03:48:02.197Z,7.75
2022-08-17T03:50:56.733Z,7.55
2022-08-17T03:53:44.103Z,8.00
2022-08-17T03:56:30.188Z,8.15
2022-08-17T03:58:58.586Z,8.18
2022-08-17T04:01:27.149Z,6.97
2022-08-17T04:03:55.600Z,8.30
2022-08-17T04:06:23.972Z,8.77
2022-08-17T04:08:53.759Z,8.93
2022-08-17T04:11:22.206Z,8.32
2022-08-17T04:13:50.616Z,8.32
2022-08-17T04:16:18.985Z,7.47
2022-08-17T04:18:47.373Z,8.15
2022-08-17T04:21:15.755Z,8.23
2022-08-17T04:23:44.269Z,8.57
2022-08-17T04:26:54.241Z,7.97
2022-08-17T04:29:03.089Z,8.07
2022-08-17T04:31:31.459Z,8.63
2022-08-17T04:33:59.950Z,8.05
2022-08-17T04:36:28.350Z,7.85
2022-08-17T04:38:58.318Z,7.97
2022-08-17T04:41:45.807Z,8.05
2022-08-17T04:44:14.418Z,7.95
2022-08-17T04:47:02.804Z,7.88
2022-08-17T04:49:32.646Z,8.70
2022-08-17T04:52:04.449Z,7.82
2022-08-17T04:54:33.585Z,8.43
2022-08-17T04:57:03.545Z,8.10
2022-08-17T04:59:31.968Z,8.40
2022-08-17T05:02:00.331Z,7.78
2022-08-17T05:04:34.389Z,8.15
2022-08-17T05:07:04.590Z,7.95
2022-08-17T05:09:33.054Z,8.65
2022-08-17T05:12:03.820Z,8.20
2022-08-17T05:14:33.000Z,7.68
2022-08-17T05:17:09.369Z,7.32
2022-08-17T05:19:39.312Z,8.93
2022-08-17T05:22:07.730Z,8.57
2022-08-17T05:24:40.785Z,7.80
2022-08-17T05:27:18.935Z,7.78
2022-08-17T05:29:47.717Z,8.00
2022-08-17T05:32:38.001Z,6.78
2022-08-17T05:35:04.687Z,7.38
2022-08-17T05:37:33.365Z,7.07
2022-08-17T05:40:01.999Z,7.07
2022-08-17T05:42:31.843Z,7.50
2022-08-17T05:45:00.315Z,6.70
2022-08-17T05:47:29.129Z,6.68
2022-08-17T05:49:57.783Z,7.10
2022-08-17T05:52:31.448Z,7.18
2022-08-17T05:55:07.596Z,6.95
2022-08-17T05:57:53.244Z,6.65
2022-08-17T06:00:30.422Z,6.82
2022-08-17T06:03:14.410Z,6.53
2022-08-17T06:05:51.596Z,6.35
2022-08-17T06:08:25.555Z,6.90
2022-08-17T06:10:57.711Z,6.75
2022-08-17T06:13:32.879Z,6.85
2022-08-17T06:16:04.382Z,6.75
2022-08-17T06:18:57.726Z,6.75
2022-08-17T06:21:31.892Z,5.63
2022-08-17T06:24:03.456Z,5.75
2022-08-17T06:26:38.499Z,6.32
2022-08-17T06:29:18.826Z,6.63
2022-08-17T06:31:47.443Z,6.57
2022-08-17T06:34:15.849Z,5.68
2022-08-17T06:36:50.361Z,5.47
2022-08-17T06:39:30.429Z,5.10
2022-08-17T06:42:03.480Z,5.47
2022-08-17T06:44:44.780Z,5.15
2022-08-17T06:47:28.805Z,5.13
2022-08-17T06:50:05.575Z,5.03
2022-08-17T06:52:42.207Z,5.18
2022-08-17T06:55:19.078Z,5.10
2022-08-17T06:57:49.621Z,5.20
2022-08-17T07:00:22.321Z,5.65
2022-08-17T07:02:54.331Z,5.80
2022-08-17T07:05:23.455Z,5.60
2022-08-17T07:08:03.899Z,5.80
2022-08-17T07:10:37.063Z,5.85
2022-08-17T07:13:13.953Z,6.05
2022-08-17T07:15:44.721Z,6.13
2022-08-17T07:18:13.118Z,7.50
2022-08-17T07:20:43.969Z,7.38
2022-08-17T07:23:19.863Z,8.82
2022-08-17T07:25:49.704Z,7.97
2022-08-17T07:28:23.054Z,9.00
2022-08-17T07:30:55.494Z,8.55
2022-08-17T07:33:26.132Z,8.93
2022-08-17T07:35:54.859Z,8.45
2022-08-17T07:38:26.922Z,8.70
2022-08-17T07:41:06.290Z,9.43
2022-08-17T07:43:36.266Z,9.50
2022-08-17T07:46:25.179Z,10.65
2022-08-17T07:48:55.300Z,9.65
2022-08-17T07:51:26.279Z,11.45
2022-08-17T07:54:12.904Z,10.60
2022-08-17T07:56:45.758Z,10.57
2022-08-17T07:59:18.177Z,11.30
2022-08-17T08:02:06.218Z,12.10
2022-08-17T08:04:59.074Z,12.00
2022-08-17T08:07:27.490Z,10.82
2022-08-17T08:10:02.800Z,11.88
2022-08-17T08:12:34.394Z,12.43
2022-08-17T08:15:04.508Z,12.63
2022-08-17T08:17:36.583Z,12.30
2022-08-17T08:20:50.825Z,13.45
2022-08-17T08:23:05.313Z,11.82
2022-08-17T08:25:40.658Z,12.38
2022-08-17T08:28:16.721Z,13.20
2022-08-17T08:30:48.610Z,11.95
2022-08-17T08:33:27.066Z,13.18
2022-08-17T08:35:56.644Z,11.98
2022-08-17T08:38:30.121Z,13.00
2022-08-17T08:41:03.481Z,12.75
2022-08-17T08:43:36.768Z,13.68
2022-08-17T08:46:08.611Z,13.90
2022-08-17T08:48:56.433Z,14.30
2022-08-17T08:51:32.396Z,14.48
2022-08-17T08:54:03.432Z,15.63
2022-08-17T08:56:36.196Z,16.38
2022-08-17T08:59:08.462Z,14.98
2022-08-17T09:01:39.155Z,13.95
2022-08-17T09:04:25.268Z,14.75
2022-08-17T09:06:59.387Z,14.93
2022-08-17T09:09:32.066Z,13.73
2022-08-17T09:12:06.185Z,12.70
2022-08-17T09:14:46.912Z,15.48
2022-08-17T09:17:18.381Z,16.75
2022-08-17T09:19:50.932Z,16.45
2022-08-17T09:22:33.304Z,16.85
2022-08-17T09:25:07.246Z,19.10
2022-08-17T09:27:37.645Z,18.73
2022-08-17T09:30:09.026Z,17.15
2022-08-17T09:32:39.613Z,17.58
2022-08-17T09:35:14.033Z,18.05
2022-08-17T09:37:49.814Z,19.20
2022-08-17T09:40:20.950Z,17.25
2022-08-17T09:42:50.541Z,18.88
2022-08-17T09:45:25.136Z,18.02
2022-08-17T09:47:57.901Z,17.58
2022-08-17T09:50:55.524Z,20.10
2022-08-17T09:53:18.505Z,20.67
2022-08-17T09:56:03.754Z,21.38
2022-08-17T09:58:34.718Z,22.38
2022-08-17T10:01:04.799Z,20.95
2022-08-17T10:03:43.055Z,22.35
2022-08-17T10:06:21.975Z,21.08
2022-08-17T10:08:55.808Z,22.42
2022-08-17T10:11:50.262Z,22.40
2022-08-17T10:14:36.555Z,25.33
2022-08-17T10:17:11.616Z,23.80
2022-08-17T10:19:43.991Z,25.10
2022-08-17T10:22:38.213Z,25.30
2022-08-17T10:25:37.555Z,26.67
2022-08-17T10:28:20.255Z,25.38
2022-08-17T10:30:50.372Z,23.95
2022-08-17T10:33:23.461Z,23.60
2022-08-17T10:35:57.035Z,25.20
2022-08-17T10:38:31.734Z,23.83
2022-08-17T10:41:03.729Z,25.02
2022-08-17T10:44:38.144Z,24.55
2022-08-17T10:46:52.210Z,26.88
2022-08-17T10:49:26.066Z,25.58
2022-08-17T10:51:55.029Z,27.70
2022-08-17T10:54:38.370Z,26.73
2022-08-17T10:57:31.716Z,27.48
2022-08-17T11:00:00.777Z,28.83
2022-08-17T11:02:31.606Z,27.63
2022-08-17T11:05:10.059Z,28.30
2022-08-17T11:07:48.919Z,27.67
2022-08-17T11:10:37.827Z,26.77
2022-08-17T11:13:10.955Z,27.25
2022-08-17T11:15:47.150Z,27.65
2022-08-17T11:18:33.462Z,29.67
2022-08-17T11:21:24.675Z,29.48
2022-08-17T11:24:01.439Z,30.77
2022-08-17T11:26:32.013Z,31.63
2022-08-17T11:29:05.209Z,31.02
2022-08-17T11:31:39.004Z,30.40
2022-08-17T11:34:09.944Z,32.25
2022-08-17T11:36:56.040Z,33.75
2022-08-17T11:39:30.592Z,34.90
2022-08-17T11:42:01.665Z,34.13
2022-08-17T11:44:37.738Z,36.45
2022-08-17T11:47:42.938Z,34.58
2022-08-17T11:50:43.015Z,35.10
2022-08-17T11:53:26.292Z,35.42
2022-08-17T11:56:05.079Z,36.03
2022-08-17T11:58:37.369Z,35.80
2022-08-17T12:01:08.122Z,37.35
2022-08-17T12:03:54.042Z,38.63
2022-08-17T12:06:30.645Z,33.25
2022-08-17T12:09:02.127Z,38.88
2022-08-17T12:12:11.277Z,37.03
2022-08-17T12:14:45.073Z,33.50
2022-08-17T12:17:20.857Z,35.45
2022-08-17T12:20:11.328Z,36.38
2022-08-17T12:22:44.933Z,38.28
2022-08-17T12:25:16.141Z,36.90
2022-08-17T12:28:05.702Z,38.08
2022-08-17T12:30:35.819Z,36.95
2022-08-17T12:33:05.883Z,38.28
2022-08-17T12:35:38.956Z,36.05
2022-08-17T12:38:32.506Z,40.38
2022-08-17T12:40:58.418Z,39.88
2022-08-17T12:43:30.449Z,39.10
2022-08-17T12:46:01.072Z,38.88
2022-08-17T12:49:00.010Z,40.63
2022-08-17T12:51:29.999Z,40.25
2022-08-17T12:53:58.508Z,41.55
2022-08-17T12:56:27.430Z,37.80
2022-08-17T12:58:56.567Z,43.03
2022-08-17T13:01:26.052Z,45.10
2022-08-17T13:03:59.710Z,41.10
2022-08-17T13:06:30.098Z,43.75
2022-08-17T13:08:58.450Z,44.10
2022-08-17T13:11:28.839Z,47.15
2022-08-17T13:13:57.934Z,44.80
2022-08-17T13:16:27.683Z,44.88
2022-08-17T13:19:06.732Z,41.67
2022-08-17T13:21:35.761Z,41.65
2022-08-17T13:24:05.968Z,40.83
2022-08-17T13:26:36.386Z,39.42
2022-08-17T13:29:06.840Z,36.38
2022-08-17T13:31:52.012Z,40.00
2022-08-17T13:34:56.139Z,38.78
2022-08-17T13:37:32.710Z,34.92
2022-08-17T13:40:03.498Z,39.83
2022-08-17T13:42:33.544Z,40.40
2022-08-17T13:45:38.905Z,35.78
2022-08-17T13:48:08.763Z,35.53
2022-08-17T13:50:45.202Z,40.65
2022-08-17T13:53:21.530Z,41.33
2022-08-17T13:55:52.049Z,42.92
2022-08-17T13:58:25.679Z,43.95
2022-08-17T14:00:56.188Z,46.70
2022-08-17T14:03:25.116Z,46.83
2022-08-17T14:05:55.005Z,46.58
2022-08-17T14:08:24.021Z,47.53
2022-08-17T14:10:59.053Z,45.25
2022-08-17T14:13:28.624Z,48.25
2022-08-17T14:15:57.031Z,48.17
2022-08-17T14:18:35.502Z,45.63
2022-08-17T14:21:16.255Z,47.03
2022-08-17T14:23:54.513Z,42.13
2022-08-17T14:26:23.820Z,47.35
2022-08-17T14:28:56.364Z,44.25
2022-08-17T14:31:25.329Z,44.35
2022-08-17T14:33:53.764Z,43.45
2022-08-17T14:36:23.663Z,41.58
2022-08-17T14:38:52.275Z,41.50
2022-08-17T14:41:23.455Z,38.88
2022-08-17T14:43:52.974Z,38.72
2022-08-17T14:46:21.425Z,39.97
2022-08-17T14:48:57.088Z,42.05
2022-08-17T14:51:27.609Z,35.50
2022-08-17T14:53:57.153Z,37.35
2022-08-17T14:56:25.818Z,37.38
2022-08-17T14:58:54.279Z,36.28
2022-08-17T15:01:24.478Z,38.10
2022-08-17T15:03:54.025Z,36.55
2022-08-17T15:06:23.728Z,33.50
2022-08-17T15:08:54.202Z,31.73
2022-08-17T15:11:22.662Z,30.13
2022-08-17T15:13:52.186Z,32.10
2022-08-17T15:16:21.135Z,29.85
2022-08-17T15:18:50.168Z,30.60
2022-08-17T15:21:18.778Z,28.45
2022-08-17T15:23:47.761Z,30.73
2022-08-17T15:26:19.087Z,31.48
2022-08-17T15:28:54.366Z,28.45
2022-08-17T15:31:32.114Z,28.02
2022-08-17T15:34:01.073Z,29.17
2022-08-17T15:36:29.630Z,27.67
2022-08-17T15:38:58.726Z,26.10
2022-08-17T15:41:29.408Z,24.17
2022-08-17T15:43:57.797Z,26.83
2022-08-17T15:46:27.228Z,28.50
2022-08-17T15:48:59.666Z,26.75
2022-08-17T15:51:29.388Z,30.73
2022-08-17T15:53:59.250Z,31.60
2022-08-17T15:56:34.146Z,30.83
2022-08-17T15:59:02.688Z,33.72
2022-08-17T16:03:14.041Z,34.38
2022-08-17T16:04:29.838Z,34.83
2022-08-17T16:06:59.866Z,33.30
2022-08-17T16:09:28.577Z,38.80
2022-08-17T16:11:58.387Z,36.15
2022-08-17T16:14:28.893Z,34.92
2022-08-17T16:17:04.535Z,37.40
2022-08-17T16:19:34.274Z,40.40
2022-08-17T16:22:02.787Z,37.38
2022-08-17T16:24:31.990Z,38.60
2022-08-17T16:27:01.728Z,38.80
2022-08-17T16:29:36.874Z,33.95
2022-08-17T16:32:09.872Z,38.50
2022-08-17T16:34:38.362Z,33.55
2022-08-17T16:37:12.501Z,32.53
2022-08-17T16:39:41.217Z,33.05
2022-08-17T16:42:24.568Z,33.67
2022-08-17T16:44:59.660Z,33.03
2022-08-17T16:47:28.115Z,35.92
2022-08-17T16:49:56.760Z,35.85
2022-08-17T16:52:32.724Z,35.28
2022-08-17T16:55:02.414Z,32.25
2022-08-17T16:57:32.298Z,32.65
2022-08-17T17:00:00.749Z,35.13
2022-08-17T17:02:33.402Z,33.75
2022-08-17T17:05:03.972Z,36.55
2022-08-17T17:07:39.615Z,35.15
2022-08-17T17:10:10.732Z,39.80
2022-08-17T17:13:02.808Z,37.83
2022-08-17T17:15:33.469Z,36.10
2022-08-17T17:18:07.078Z,37.05
2022-08-17T17:20:38.321Z,38.15
2022-08-17T17:23:08.925Z,40.10
2022-08-17T17:25:44.469Z,41.38
2022-08-17T17:28:24.938Z,37.75
2022-08-17T17:30:57.536Z,36.20
2022-08-17T17:33:34.693Z,35.83
2022-08-17T17:36:08.561Z,35.50
2022-08-17T17:38:40.946Z,34.72
2022-08-17T17:41:12.853Z,34.55
2022-08-17T17:43:43.163Z,35.38
2022-08-17T17:46:28.729Z,31.73
2022-08-17T17:48:57.713Z,32.47
2022-08-17T17:52:06.681Z,36.30
2022-08-17T17:54:24.766Z,33.72
2022-08-17T17:56:55.762Z,31.90
2022-08-17T17:59:30.340Z,30.65
2022-08-17T18:02:07.364Z,29.73
2022-08-17T18:04:47.452Z,28.58
2022-08-17T18:07:19.530Z,28.75
2022-08-17T18:10:01.138Z,27.33
2022-08-17T18:12:34.613Z,24.23
2022-08-17T18:15:12.264Z,29.45
2022-08-17T18:17:40.779Z,27.70
2022-08-17T18:20:09.296Z,25.85
2022-08-17T18:22:37.986Z,26.75
2022-08-17T18:25:26.841Z,24.45
2022-08-17T18:27:55.258Z,27.23
2022-08-17T18:30:28.932Z,27.75
2022-08-17T18:33:17.524Z,28.38
2022-08-17T18:35:58.855Z,26.35
2022-08-17T18:38:33.612Z,27.23
2022-08-17T18:41:04.351Z,28.55
2022-08-17T18:43:44.090Z,27.67
2022-08-17T18:46:28.303Z,27.67
2022-08-17T18:48:58.973Z,28.95
2022-08-17T18:51:42.426Z,23.48
2022-08-17T18:54:20.076Z,26.98
2022-08-17T18:56:52.949Z,28.27
2022-08-17T18:59:27.023Z,28.70
2022-08-17T19:02:16.088Z,26.30
2022-08-17T19:04:58.747Z,29.95
2022-08-17T19:07:28.612Z,30.90
2022-08-17T19:09:59.000Z,27.92
2022-08-17T19:12:30.231Z,29.02
2022-08-17T19:14:59.598Z,27.23
2022-08-17T19:17:35.365Z,26.60
2022-08-17T19:20:06.606Z,25.23
2022-08-17T19:22:45.768Z,23.35
2022-08-17T19:25:15.198Z,24.73
2022-08-17T19:27:49.213Z,23.48
2022-08-17T19:30:20.352Z,24.05
2022-08-17T19:32:51.002Z,24.40
2022-08-17T19:35:20.629Z,24.88
2022-08-17T19:37:54.883Z,23.98
2022-08-17T19:40:51.641Z,26.70
2022-08-17T19:43:23.493Z,27.05
2022-08-17T19:45:59.579Z,28.02
2022-08-17T19:48:35.657Z,29.27
2022-08-17T19:51:07.056Z,25.90
2022-08-17T19:54:04.356Z,26.23
2022-08-17T19:56:32.870Z,28.58
2022-08-17T19:59:03.911Z,27.85
2022-08-17T20:01:36.512Z,28.38
2022-08-17T20:04:13.468Z,27.65
2022-08-17T20:06:44.693Z,25.70
2022-08-17T20:09:18.133Z,26.48
2022-08-17T20:11:48.725Z,28.00
2022-08-17T20:14:19.227Z,27.00
2022-08-17T20:16:47.738Z,26.85
2022-08-17T20:19:22.489Z,25.52
2022-08-17T20:21:54.802Z,27.73
2022-08-17T20:24:27.742Z,27.27
2022-08-17T20:26:58.629Z,30.27
2022-08-17T20:29:40.300Z,30.20
2022-08-17T20:32:15.537Z,29.23
2022-08-17T20:34:47.182Z,28.85
2022-08-17T20:37:28.244Z,29.83
2022-08-17T20:40:11.593Z,29.02
2022-08-17T20:42:40.055Z,30.63
2022-08-17T20:45:23.411Z,30.80
2022-08-17T20:48:16.007Z,33.47
2022-08-17T20:50:44.532Z,32.95
2022-08-17T20:53:15.140Z,33.05
2022-08-17T20:55:54.820Z,34.35
2022-08-17T20:58:53.802Z,36.40
2022-08-17T21:01:36.861Z,32.45
2022-08-17T21:04:08.111Z,34.92
2022-08-17T21:07:00.566Z,32.35
2022-08-17T21:09:32.016Z,33.08
2022-08-17T21:12:04.379Z,37.35
2022-08-17T21:14:38.420Z,35.65
2022-08-17T21:17:22.550Z,38.65
2022-08-17T21:20:10.758Z,34.15
2022-08-17T21:22:44.496Z,38.88
2022-08-17T21:25:27.523Z,38.47
2022-08-17T21:28:01.902Z,34.78
2022-08-17T21:30:48.097Z,39.90
2022-08-17T21:33:20.250Z,36.55
2022-08-17T21:35:52.845Z,40.45
2022-08-17T21:38:22.313Z,39.63
2022-08-17T21:40:54.312Z,39.75
2022-08-17T21:43:26.543Z,41.60
2022-08-17T21:46:03.027Z,36.38
2022-08-17T21:48:32.356Z,44.55
2022-08-17T21:51:03.703Z,41.42
2022-08-17T21:53:36.566Z,43.20
2022-08-17T21:56:06.530Z,47.42
2022-08-17T21:58:36.573Z,43.00
2022-08-17T22:01:12.571Z,49.10
2022-08-17T22:03:41.428Z,49.70
2022-08-17T22:06:23.252Z,50.45
2022-08-17T22:09:01.895Z,45.15
2022-08-17T22:11:31.703Z,47.35
2022-08-17T22:14:05.859Z,45.25
2022-08-17T22:16:34.870Z,49.42
2022-08-17T22:19:03.524Z,51.22
2022-08-17T22:21:31.947Z,54.58
2022-08-17T22:24:03.969Z,53.40
2022-08-17T22:26:47.993Z,56.33
2022-08-17T22:29:31.194Z,54.17
2022-08-17T22:32:00.989Z,56.08
2022-08-17T22:34:29.355Z,56.58
2022-08-17T22:37:12.637Z,56.55
2022-08-17T22:39:41.656Z,60.05
2022-08-17T22:42:15.810Z,55.85
2022-08-17T22:44:48.608Z,53.05
2022-08-17T22:47:38.851Z,52.33
2022-08-17T22:50:13.757Z,51.17
2022-08-17T22:52:58.421Z,56.70
2022-08-17T22:55:44.763Z,52.13
2022-08-17T22:58:31.749Z,54.13
2022-08-17T23:01:20.505Z,56.35
2022-08-17T23:03:55.862Z,52.60
2022-08-17T23:06:24.810Z,51.92
2022-08-17T23:08:54.925Z,56.67
2022-08-17T23:11:36.944Z,48.50
2022-08-17T23:14:15.635Z,41.70
2022-08-17T23:16:44.142Z,37.50
2022-08-17T23:19:15.331Z,40.63
2022-08-17T23:21:44.883Z,41.60
2022-08-17T23:24:17.345Z,42.92
2022-08-17T23:26:45.732Z,40.03
2022-08-17T23:29:14.081Z,40.45
2022-08-17T23:31:42.721Z,47.92
2022-08-17T23:34:14.712Z,47.47
2022-08-17T23:36:52.871Z,50.05
2022-08-17T23:39:27.272Z,49.67
2022-08-17T23:41:57.197Z,49.03
2022-08-17T23:44:25.711Z,48.13
2022-08-17T23:46:54.620Z,48.95
2022-08-17T23:49:25.175Z,42.83
2022-08-17T23:51:55.271Z,42.22
2022-08-17T23:54:25.674Z,44.45
2022-08-17T23:56:54.148Z,43.70
2022-08-17T23:59:23.378Z,44.95
